Terminal Aerodrome Forecast
Issued by NWS Boise, ID

Current Version | Previous Version | Text Only | Print | Product List | Glossary On
Versions: 1 2 3 4 5 6 7 8 9 10 11 12 13 14 15
000
FTUS45 KBOI 222325
TAFBNO
TAF
KBNO 222325Z 2300/2324 27009KT P6SM VCSH BKN045 OVC060
     FM230200 27010KT P6SM BKN090
     FM231000 VRB05KT P6SM SKC=

USA.gov is the U.S. government's official web portal to all federal, state and local government web resources and services.